Alcala de Guadaira, Spain
Current Conditions -  °F | °C
As of 3:30 AM on Saturday 29 Nov 2014 (Local Time) from LEZL Reporting Station
Few Clouds Few Clouds  
Wind Chill: 52°   Ceiling: Unl
Heat Index: 52°   Visibility: 6mi
Dew Point: 52°   Wind: 7mph
Humidity: 100%   Direction: 40°NE
Pressure: 29.23"   Gusts: NA
Location:  37.34°N, 5.84°W
Report Text: LEZL 290230Z 04006KT 9999 FEW045 11/11 Q0990 NOSIG
Loading
Personal Weather Stations






























Interactive Weather Map New forecast layout! Learn more

10-Day Weather Forecast

Advertisements
Track Severe Weather on mobile